createdAt,value
2023-05-19T00:00:24.698Z,86.08
2023-05-19T00:03:17.915Z,86.01
2023-05-19T00:05:53.785Z,85.86
2023-05-19T00:08:26.058Z,85.74
2023-05-19T00:11:00.142Z,85.78
2023-05-19T00:13:32.343Z,85.81
2023-05-19T00:16:04.827Z,85.78
2023-05-19T00:18:36.430Z,85.90
2023-05-19T00:21:06.569Z,85.89
2023-05-19T00:23:38.139Z,86.21
2023-05-19T00:26:08.323Z,86.21
2023-05-19T00:28:40.035Z,86.39
2023-05-19T00:31:12.296Z,86.43
2023-05-19T00:33:43.824Z,86.63
2023-05-19T00:36:13.973Z,86.83
2023-05-19T00:38:45.526Z,86.90
2023-05-19T00:41:15.571Z,86.55
2023-05-19T00:43:47.792Z,86.56
2023-05-19T00:46:17.960Z,86.28
2023-05-19T00:48:49.587Z,86.25
2023-05-19T00:51:21.623Z,86.09
2023-05-19T00:53:53.305Z,85.97
2023-05-19T00:56:26.456Z,85.83
2023-05-19T00:58:58.447Z,85.52
2023-05-19T01:01:32.424Z,85.49
2023-05-19T01:04:05.295Z,85.69
2023-05-19T01:06:37.967Z,85.78
2023-05-19T01:09:09.565Z,85.79
2023-05-19T01:11:41.237Z,85.47
2023-05-19T01:14:13.584Z,85.46
2023-05-19T01:16:51.713Z,85.41
2023-05-19T01:19:41.946Z,85.05
2023-05-19T01:22:28.410Z,85.00
2023-05-19T01:25:17.700Z,85.16
2023-05-19T01:28:27.967Z,85.40
2023-05-19T01:31:01.311Z,85.43
2023-05-19T01:33:33.848Z,85.54
2023-05-19T01:36:08.680Z,85.36
2023-05-19T01:38:41.526Z,85.16
2023-05-19T01:41:15.813Z,85.16
2023-05-19T01:43:48.664Z,85.12
2023-05-19T01:46:20.470Z,85.22
2023-05-19T01:48:54.408Z,85.12
2023-05-19T01:51:26.179Z,85.23
2023-05-19T01:53:57.771Z,85.08
2023-05-19T01:56:35.091Z,85.11
2023-05-19T01:59:29.398Z,85.23
2023-05-19T02:02:06.948Z,85.13
2023-05-19T02:04:50.265Z,85.15
2023-05-19T02:07:32.137Z,85.22
2023-05-19T02:10:11.689Z,85.21
2023-05-19T02:12:44.691Z,85.36
2023-05-19T02:15:18.904Z,85.16
2023-05-19T02:17:52.110Z,85.39
2023-05-19T02:20:23.993Z,85.42
2023-05-19T02:22:55.583Z,85.29
2023-05-19T02:25:25.703Z,85.50
2023-05-19T02:27:57.222Z,85.58
2023-05-19T02:30:29.099Z,85.59
2023-05-19T02:32:59.502Z,85.53
2023-05-19T02:35:31.223Z,85.56
2023-05-19T02:38:01.305Z,85.66
2023-05-19T02:40:33.084Z,86.04
2023-05-19T02:43:04.891Z,85.91
2023-05-19T02:45:36.450Z,86.23
2023-05-19T02:48:08.717Z,86.01
2023-05-19T02:50:40.576Z,86.25
2023-05-19T02:53:12.732Z,86.45
2023-05-19T02:55:43.232Z,86.62
2023-05-19T02:58:14.853Z,86.95
2023-05-19T03:00:45.437Z,86.98
2023-05-19T03:03:17.314Z,87.29
2023-05-19T03:05:49.038Z,87.36
2023-05-19T03:08:19.747Z,87.16
2023-05-19T03:10:51.496Z,87.40
2023-05-19T03:13:23.062Z,87.35
2023-05-19T03:15:53.299Z,87.50
2023-05-19T03:18:25.231Z,87.92
2023-05-19T03:20:56.891Z,87.65
2023-05-19T03:23:27.219Z,87.83
2023-05-19T03:25:58.819Z,88.01
2023-05-19T03:28:30.857Z,87.98
2023-05-19T03:31:02.472Z,87.86
2023-05-19T03:33:38.578Z,88.19
2023-05-19T03:36:12.633Z,88.34
2023-05-19T03:38:44.264Z,88.54
2023-05-19T03:41:15.910Z,88.41
2023-05-19T03:43:47.525Z,88.54
2023-05-19T03:46:19.847Z,88.73
2023-05-19T03:48:59.601Z,88.56
2023-05-19T03:51:30.113Z,88.48
2023-05-19T03:54:09.438Z,88.76
2023-05-19T03:56:44.148Z,88.82
2023-05-19T03:59:16.218Z,88.82
2023-05-19T04:01:48.725Z,88.81
2023-05-19T04:04:21.599Z,88.90
2023-05-19T04:06:53.208Z,88.96
2023-05-19T04:09:25.275Z,88.96
2023-05-19T04:11:56.801Z,88.66
2023-05-19T04:14:29.110Z,88.84
2023-05-19T04:16:59.988Z,88.75
2023-05-19T04:19:32.043Z,88.97
2023-05-19T04:22:03.743Z,88.79
2023-05-19T04:24:36.163Z,88.72
2023-05-19T04:27:12.111Z,88.69
2023-05-19T04:29:46.127Z,88.95
2023-05-19T04:32:18.544Z,88.81
2023-05-19T04:34:50.310Z,88.76
2023-05-19T04:37:27.543Z,88.72
2023-05-19T04:39:59.700Z,88.84
2023-05-19T04:42:33.102Z,88.87
2023-05-19T04:45:08.900Z,88.72
2023-05-19T04:47:42.843Z,88.97
2023-05-19T04:50:14.928Z,88.84
2023-05-19T04:52:47.105Z,88.94
2023-05-19T04:55:19.819Z,88.79
2023-05-19T04:57:52.677Z,88.57
2023-05-19T05:00:25.995Z,88.26
2023-05-19T05:03:05.141Z,88.37
2023-05-19T05:05:37.319Z,88.71
2023-05-19T05:08:11.026Z,88.58
2023-05-19T05:10:45.311Z,88.67
2023-05-19T05:13:16.256Z,88.78
2023-05-19T05:15:50.240Z,88.92
2023-05-19T05:18:23.531Z,88.94
2023-05-19T05:20:56.238Z,88.68
2023-05-19T05:23:31.615Z,88.68
2023-05-19T05:26:10.777Z,88.47
2023-05-19T05:28:44.465Z,88.51
2023-05-19T05:31:17.067Z,88.73
2023-05-19T05:33:49.158Z,88.81
2023-05-19T05:36:22.051Z,88.68
2023-05-19T05:38:53.660Z,88.51
2023-05-19T05:41:23.794Z,88.46
2023-05-19T05:43:55.886Z,88.38
2023-05-19T05:46:28.197Z,88.25
2023-05-19T05:49:01.051Z,88.46
2023-05-19T05:51:33.790Z,88.56
2023-05-19T05:54:08.401Z,88.44
2023-05-19T05:56:43.175Z,88.39
2023-05-19T05:59:14.765Z,88.02
2023-05-19T06:01:46.825Z,88.27
2023-05-19T06:04:21.138Z,88.25
2023-05-19T06:06:54.940Z,88.09
2023-05-19T06:09:27.206Z,88.07
2023-05-19T06:12:00.982Z,87.99
2023-05-19T06:14:35.699Z,88.11
2023-05-19T06:17:22.054Z,88.06
2023-05-19T06:19:53.694Z,87.88
2023-05-19T06:22:23.838Z,87.83
2023-05-19T06:24:55.430Z,88.04
2023-05-19T06:27:25.604Z,87.96
2023-05-19T06:29:57.587Z,88.15
2023-05-19T06:32:30.504Z,88.18
2023-05-19T06:35:02.616Z,88.05
2023-05-19T06:37:34.277Z,88.25
2023-05-19T06:40:07.026Z,88.11
2023-05-19T06:42:38.992Z,87.90
2023-05-19T06:45:21.803Z,87.83
2023-05-19T06:47:54.735Z,87.70
2023-05-19T06:50:26.517Z,87.56
2023-05-19T06:52:59.315Z,87.58
2023-05-19T06:55:30.934Z,87.51
2023-05-19T06:58:02.611Z,87.51
2023-05-19T07:00:35.034Z,87.69
2023-05-19T07:03:07.625Z,87.27
2023-05-19T07:05:39.249Z,87.27
2023-05-19T07:08:09.444Z,87.15
2023-05-19T07:10:41.192Z,87.33
2023-05-19T07:13:15.256Z,86.79
2023-05-19T07:15:48.938Z,86.93
2023-05-19T07:18:21.404Z,87.05
2023-05-19T07:20:54.437Z,86.99
2023-05-19T07:23:29.226Z,87.09
2023-05-19T07:26:00.808Z,86.84
2023-05-19T07:28:30.894Z,87.11
2023-05-19T07:31:02.513Z,87.02
2023-05-19T07:33:34.049Z,86.68
2023-05-19T07:36:04.402Z,86.89
2023-05-19T07:38:36.091Z,86.97
2023-05-19T07:41:08.199Z,86.72
2023-05-19T07:43:39.855Z,86.35
2023-05-19T07:46:10.180Z,86.31
2023-05-19T07:48:41.943Z,86.29
2023-05-19T07:51:13.624Z,86.19
2023-05-19T07:53:47.048Z,86.04
2023-05-19T07:56:18.750Z,85.68
2023-05-19T07:58:50.528Z,85.99
2023-05-19T08:01:22.135Z,86.04
2023-05-19T08:03:52.298Z,85.82
2023-05-19T08:06:25.286Z,85.84
2023-05-19T08:08:56.898Z,86.05
2023-05-19T08:11:28.484Z,85.57
2023-05-19T08:14:00.022Z,85.63
2023-05-19T08:16:30.225Z,85.22
2023-05-19T08:19:04.303Z,85.20
2023-05-19T08:21:36.622Z,85.32
2023-05-19T08:24:08.670Z,84.97
2023-05-19T08:26:40.250Z,84.68
2023-05-19T08:29:10.389Z,84.74
2023-05-19T08:31:42.519Z,84.98
2023-05-19T08:34:14.097Z,84.73
2023-05-19T08:36:45.333Z,84.72
2023-05-19T08:39:18.996Z,84.78
2023-05-19T08:41:50.583Z,85.09
2023-05-19T08:44:22.697Z,84.90
2023-05-19T08:46:57.038Z,84.81
2023-05-19T08:49:33.563Z,85.01
2023-05-19T08:52:16.498Z,85.22
2023-05-19T08:54:54.440Z,85.00
2023-05-19T08:57:28.183Z,84.89
2023-05-19T09:00:00.311Z,85.11
2023-05-19T09:02:32.291Z,85.12
2023-05-19T09:05:04.850Z,85.01
2023-05-19T09:07:38.760Z,84.79
2023-05-19T09:10:14.663Z,84.60
2023-05-19T09:12:48.811Z,84.15
2023-05-19T09:15:20.679Z,83.54
2023-05-19T09:17:52.344Z,83.32
2023-05-19T09:20:22.577Z,83.36
2023-05-19T09:22:54.110Z,83.86
2023-05-19T09:25:24.733Z,83.81
2023-05-19T09:27:57.741Z,84.13
2023-05-19T09:30:29.350Z,83.91
2023-05-19T09:33:01.330Z,83.69
2023-05-19T09:35:33.291Z,83.65
2023-05-19T09:38:05.094Z,83.73
2023-05-19T09:40:36.679Z,83.16
2023-05-19T09:43:10.893Z,82.89
2023-05-19T09:45:42.564Z,82.84
2023-05-19T09:48:15.026Z,83.00
2023-05-19T09:50:46.796Z,82.64
2023-05-19T09:53:19.565Z,82.57
2023-05-19T09:55:52.014Z,82.26
2023-05-19T09:58:24.201Z,82.64
2023-05-19T10:00:56.490Z,82.89
2023-05-19T10:03:29.210Z,83.02
2023-05-19T10:06:04.957Z,82.56
2023-05-19T10:08:38.108Z,82.48
2023-05-19T10:11:11.267Z,82.11
2023-05-19T10:13:43.799Z,81.40
2023-05-19T10:16:17.153Z,81.61
2023-05-19T10:18:50.868Z,81.83
2023-05-19T10:21:22.443Z,81.49
2023-05-19T10:23:54.073Z,81.05
2023-05-19T10:26:27.155Z,80.91
2023-05-19T10:28:59.325Z,80.66
2023-05-19T10:31:33.755Z,80.38
2023-05-19T10:34:24.651Z,80.27
2023-05-19T10:37:06.676Z,80.28
2023-05-19T10:39:42.100Z,80.55
2023-05-19T10:42:17.833Z,80.21
2023-05-19T10:44:59.653Z,79.96
2023-05-19T10:47:32.547Z,80.39
2023-05-19T10:50:06.658Z,80.23
2023-05-19T10:52:40.831Z,80.30
2023-05-19T10:55:15.691Z,80.33
2023-05-19T10:57:57.684Z,80.55
2023-05-19T11:00:33.811Z,80.47
2023-05-19T11:03:18.837Z,80.02
2023-05-19T11:05:52.339Z,79.82
2023-05-19T11:08:36.408Z,79.65
2023-05-19T11:11:18.092Z,79.15
2023-05-19T11:13:55.168Z,79.30
2023-05-19T11:16:35.573Z,79.52
2023-05-19T11:19:08.737Z,79.22
2023-05-19T11:21:50.586Z,79.01
2023-05-19T11:24:36.745Z,78.73
2023-05-19T11:27:28.890Z,78.86
2023-05-19T11:30:01.785Z,78.59
2023-05-19T11:32:35.808Z,78.86
2023-05-19T11:35:08.736Z,78.43
2023-05-19T11:37:42.599Z,78.38
2023-05-19T11:40:16.517Z,78.09
2023-05-19T11:42:48.175Z,77.75
2023-05-19T11:45:18.470Z,78.40
2023-05-19T11:48:01.333Z,78.37
2023-05-19T11:50:36.862Z,78.63
2023-05-19T11:53:12.348Z,78.42
2023-05-19T11:55:48.589Z,78.27
2023-05-19T11:58:26.675Z,77.68
2023-05-19T12:00:58.594Z,77.88
2023-05-19T12:03:32.877Z,77.99
2023-05-19T12:06:11.956Z,77.35
2023-05-19T12:08:44.140Z,76.95
2023-05-19T12:11:18.061Z,76.10
2023-05-19T12:13:54.423Z,76.60
2023-05-19T12:16:33.656Z,76.69
2023-05-19T12:19:07.859Z,76.70
2023-05-19T12:21:40.187Z,76.83
2023-05-19T12:24:12.542Z,77.24
2023-05-19T12:26:44.656Z,77.33
2023-05-19T12:29:17.169Z,77.13
2023-05-19T12:31:56.195Z,76.43
2023-05-19T12:34:29.009Z,76.14
2023-05-19T12:37:02.961Z,76.03
2023-05-19T12:39:35.258Z,75.81
2023-05-19T12:42:10.873Z,75.87
2023-05-19T12:44:46.633Z,75.50
2023-05-19T12:47:19.964Z,75.96
2023-05-19T12:49:57.949Z,76.16
2023-05-19T12:52:31.583Z,76.76
2023-05-19T12:55:06.997Z,76.39
2023-05-19T12:57:39.583Z,76.19
2023-05-19T13:00:17.888Z,76.16
2023-05-19T13:03:01.533Z,76.45
2023-05-19T13:05:37.453Z,76.68
2023-05-19T13:08:10.393Z,76.90
2023-05-19T13:10:43.829Z,76.96
2023-05-19T13:13:15.741Z,77.41
2023-05-19T13:15:49.580Z,77.17
2023-05-19T13:18:21.258Z,77.34
2023-05-19T13:20:52.974Z,76.75
2023-05-19T13:23:25.705Z,77.01
2023-05-19T13:25:57.409Z,76.60
2023-05-19T13:28:29.430Z,76.76
2023-05-19T13:31:01.098Z,76.72
2023-05-19T13:33:32.991Z,76.92
2023-05-19T13:36:04.663Z,77.28
2023-05-19T13:38:36.409Z,77.41
2023-05-19T13:41:10.084Z,76.85
2023-05-19T13:43:42.933Z,77.00
2023-05-19T13:46:14.794Z,77.59
2023-05-19T13:48:46.743Z,77.62
2023-05-19T13:51:18.691Z,77.51
2023-05-19T13:53:50.733Z,77.29
2023-05-19T13:56:23.181Z,77.58
2023-05-19T13:58:55.689Z,77.93
2023-05-19T14:01:27.998Z,78.11
2023-05-19T14:04:00.841Z,78.00
2023-05-19T14:06:33.240Z,77.47
2023-05-19T14:09:06.008Z,77.66
2023-05-19T14:11:38.027Z,77.97
2023-05-19T14:14:12.034Z,77.65
2023-05-19T14:16:44.345Z,77.37
2023-05-19T14:19:16.280Z,77.86
2023-05-19T14:21:47.999Z,77.99
2023-05-19T14:24:20.164Z,78.29
2023-05-19T14:26:52.637Z,78.41
2023-05-19T14:29:24.326Z,78.25
2023-05-19T14:31:55.957Z,78.52
2023-05-19T14:34:27.865Z,78.44
2023-05-19T14:36:59.384Z,78.76
2023-05-19T14:39:31.863Z,79.16
2023-05-19T14:42:03.559Z,78.95
2023-05-19T14:44:35.365Z,79.02
2023-05-19T14:47:08.438Z,79.51
2023-05-19T14:49:40.251Z,79.07
2023-05-19T14:52:11.791Z,79.19
2023-05-19T14:54:43.407Z,79.31
2023-05-19T14:57:15.146Z,79.31
2023-05-19T14:59:46.892Z,79.70
2023-05-19T15:02:18.519Z,79.61
2023-05-19T15:04:50.494Z,79.77
2023-05-19T15:07:22.302Z,79.57
2023-05-19T15:09:53.967Z,79.63
2023-05-19T15:12:25.601Z,79.58
2023-05-19T15:14:57.276Z,79.50
2023-05-19T15:17:28.958Z,79.94
2023-05-19T15:20:00.533Z,80.08
2023-05-19T15:22:32.189Z,80.14
2023-05-19T15:25:03.791Z,80.54
2023-05-19T15:27:37.244Z,80.72
2023-05-19T15:30:10.169Z,80.79
2023-05-19T15:32:42.108Z,80.75
2023-05-19T15:35:14.251Z,80.85
2023-05-19T15:37:46.032Z,80.52
2023-05-19T15:40:19.608Z,80.71
2023-05-19T15:42:51.375Z,80.90
2023-05-19T15:45:23.594Z,80.90
2023-05-19T15:47:56.193Z,81.13
2023-05-19T15:50:28.733Z,81.35
2023-05-19T15:53:00.662Z,81.16
2023-05-19T15:55:32.516Z,80.93
2023-05-19T15:58:04.348Z,81.36
2023-05-19T16:00:36.331Z,81.53
2023-05-19T16:03:08.785Z,81.59
2023-05-19T16:05:40.487Z,81.38
2023-05-19T16:08:12.719Z,81.73
2023-05-19T16:10:49.170Z,81.70
2023-05-19T16:13:21.167Z,81.95
2023-05-19T16:15:53.553Z,81.76
2023-05-19T16:18:26.199Z,82.02
2023-05-19T16:21:16.471Z,82.17
2023-05-19T16:23:49.397Z,82.13
2023-05-19T16:26:21.675Z,82.41
2023-05-19T16:28:53.975Z,82.59
2023-05-19T16:31:26.167Z,82.56
2023-05-19T16:33:58.588Z,82.61
2023-05-19T16:36:31.846Z,82.81
2023-05-19T16:39:03.586Z,82.97
2023-05-19T16:41:35.654Z,83.20
2023-05-19T16:44:07.893Z,83.13
2023-05-19T16:46:42.242Z,83.44
2023-05-19T16:49:14.124Z,83.45
2023-05-19T16:51:48.258Z,83.40
2023-05-19T16:54:21.008Z,83.45
2023-05-19T16:56:53.954Z,83.40
2023-05-19T16:59:26.407Z,83.53
2023-05-19T17:01:58.439Z,83.71
2023-05-19T17:04:30.993Z,83.87
2023-05-19T17:07:02.758Z,83.98
2023-05-19T17:09:34.589Z,83.98
2023-05-19T17:12:08.708Z,84.03
2023-05-19T17:14:44.181Z,84.23
2023-05-19T17:17:15.927Z,84.62
2023-05-19T17:19:47.809Z,84.47
2023-05-19T17:22:19.371Z,84.74
2023-05-19T17:24:51.041Z,84.79
2023-05-19T17:27:22.639Z,84.68
2023-05-19T17:29:52.805Z,84.81
2023-05-19T17:32:28.218Z,84.86
2023-05-19T17:35:00.613Z,84.95
2023-05-19T17:37:32.322Z,84.82
2023-05-19T17:40:04.030Z,84.97
2023-05-19T17:42:36.128Z,84.90
2023-05-19T17:45:12.023Z,85.16
2023-05-19T17:47:43.742Z,85.01
2023-05-19T17:50:15.354Z,85.41
2023-05-19T17:52:47.672Z,85.53
2023-05-19T17:55:21.171Z,85.49
2023-05-19T17:57:54.532Z,85.66
2023-05-19T18:00:27.413Z,85.68
2023-05-19T18:03:01.850Z,85.63
2023-05-19T18:05:34.649Z,85.92
2023-05-19T18:08:09.204Z,86.01
2023-05-19T18:10:42.326Z,85.98
2023-05-19T18:13:15.028Z,86.00
2023-05-19T18:15:46.725Z,86.17
2023-05-19T18:18:18.265Z,86.25
2023-05-19T18:20:49.950Z,86.14
2023-05-19T18:23:22.463Z,86.24
2023-05-19T18:25:54.326Z,86.17
2023-05-19T18:28:26.524Z,86.41
2023-05-19T18:31:05.635Z,86.48
2023-05-19T18:33:37.366Z,86.38
2023-05-19T18:36:09.977Z,86.47
2023-05-19T18:38:41.627Z,86.36
2023-05-19T18:41:14.540Z,86.52
2023-05-19T18:43:46.211Z,86.59
2023-05-19T18:46:19.750Z,86.81
2023-05-19T18:48:52.882Z,86.75
2023-05-19T18:51:24.480Z,86.95
2023-05-19T18:53:56.111Z,86.98
2023-05-19T18:56:26.572Z,86.98
2023-05-19T18:58:58.160Z,87.27
2023-05-19T19:01:29.897Z,87.33
2023-05-19T19:04:02.899Z,87.05
2023-05-19T19:06:34.568Z,87.27
2023-05-19T19:09:06.304Z,87.28
2023-05-19T19:11:37.938Z,87.42
2023-05-19T19:14:10.272Z,87.58
2023-05-19T19:16:41.882Z,87.65
2023-05-19T19:19:13.597Z,87.91
2023-05-19T19:21:45.256Z,87.80
2023-05-19T19:24:17.278Z,87.86
2023-05-19T19:26:48.990Z,87.73
2023-05-19T19:29:21.927Z,87.86
2023-05-19T19:31:54.022Z,87.75
2023-05-19T19:34:25.777Z,87.98
2023-05-19T19:36:57.344Z,88.07
2023-05-19T19:39:28.981Z,88.16
2023-05-19T19:42:00.574Z,87.94
2023-05-19T19:44:32.277Z,88.04
2023-05-19T19:47:06.043Z,87.93
2023-05-19T19:49:37.685Z,88.15
2023-05-19T19:52:12.007Z,88.04
2023-05-19T19:54:43.697Z,88.31
2023-05-19T19:57:17.199Z,88.28
2023-05-19T19:59:54.949Z,88.18
2023-05-19T20:02:26.888Z,88.40
2023-05-19T20:04:58.515Z,88.42
2023-05-19T20:07:28.632Z,88.46
2023-05-19T20:10:00.665Z,88.67
2023-05-19T20:12:32.433Z,88.66
2023-05-19T20:15:03.964Z,88.75
2023-05-19T20:17:34.074Z,88.81
2023-05-19T20:20:09.831Z,89.00
2023-05-19T20:22:44.287Z,89.00
2023-05-19T20:25:15.903Z,89.08
2023-05-19T20:27:45.994Z,89.00
2023-05-19T20:30:17.581Z,89.18
2023-05-19T20:32:49.141Z,89.18
2023-05-19T20:35:21.085Z,88.92
2023-05-19T20:37:52.571Z,88.96
2023-05-19T20:40:22.620Z,88.81
2023-05-19T20:42:54.196Z,89.00
2023-05-19T20:45:25.753Z,88.91
2023-05-19T20:47:56.227Z,88.99
2023-05-19T20:50:27.849Z,89.30
2023-05-19T20:52:59.434Z,89.20
2023-05-19T20:55:29.530Z,89.26
2023-05-19T20:58:01.066Z,89.59
2023-05-19T21:00:31.220Z,89.49
2023-05-19T21:03:02.975Z,89.60
2023-05-19T21:05:34.757Z,89.49
2023-05-19T21:08:12.514Z,89.58
2023-05-19T21:10:44.088Z,89.53
2023-05-19T21:13:14.230Z,89.48
2023-05-19T21:15:45.861Z,90.08
2023-05-19T21:18:17.455Z,90.03
2023-05-19T21:20:49.104Z,90.31
2023-05-19T21:23:20.641Z,90.59
2023-05-19T21:25:52.241Z,90.80
2023-05-19T21:28:24.148Z,90.99
2023-05-19T21:30:55.739Z,91.12
2023-05-19T21:33:27.380Z,91.02
2023-05-19T21:36:00.390Z,91.06
2023-05-19T21:38:32.062Z,91.02
2023-05-19T21:41:03.645Z,91.20
2023-05-19T21:43:33.729Z,91.23
2023-05-19T21:46:05.282Z,91.43
2023-05-19T21:48:36.878Z,91.53
2023-05-19T21:51:08.611Z,91.45
2023-05-19T21:53:40.534Z,91.56
2023-05-19T21:56:12.101Z,91.51
2023-05-19T21:58:43.905Z,91.47
2023-05-19T22:01:15.516Z,91.41
2023-05-19T22:03:47.175Z,91.49
2023-05-19T22:06:18.997Z,91.50
2023-05-19T22:08:50.559Z,91.54
2023-05-19T22:11:21.370Z,91.36
2023-05-19T22:13:54.683Z,91.72
2023-05-19T22:16:26.364Z,91.57
2023-05-19T22:18:58.212Z,91.48
2023-05-19T22:21:31.142Z,91.46
2023-05-19T22:24:02.637Z,91.48
2023-05-19T22:26:32.752Z,91.45
2023-05-19T22:29:04.345Z,91.55
2023-05-19T22:31:34.403Z,91.35
2023-05-19T22:34:05.881Z,91.68
2023-05-19T22:36:36.054Z,91.38
2023-05-19T22:39:07.874Z,91.80
2023-05-19T22:41:39.635Z,91.75
2023-05-19T22:44:15.363Z,92.00
2023-05-19T22:46:46.973Z,91.85
2023-05-19T22:49:17.116Z,91.87
2023-05-19T22:51:48.680Z,92.04
2023-05-19T22:54:20.261Z,91.85
2023-05-19T22:56:50.365Z,91.76
2023-05-19T22:59:21.891Z,91.76
2023-05-19T23:01:52.108Z,91.90
2023-05-19T23:04:23.741Z,91.87
2023-05-19T23:06:55.628Z,91.68
2023-05-19T23:09:27.322Z,91.45
2023-05-19T23:11:58.867Z,91.56
2023-05-19T23:14:28.952Z,91.58
2023-05-19T23:17:00.516Z,91.62
2023-05-19T23:19:31.940Z,91.68
2023-05-19T23:22:03.541Z,91.76
2023-05-19T23:24:35.144Z,91.75
2023-05-19T23:27:05.473Z,91.60
2023-05-19T23:29:37.056Z,91.64
2023-05-19T23:32:10.594Z,91.43
2023-05-19T23:34:42.092Z,91.43
2023-05-19T23:37:13.874Z,91.50
2023-05-19T23:39:45.499Z,91.33
2023-05-19T23:42:17.105Z,91.21
2023-05-19T23:44:48.755Z,91.42
2023-05-19T23:47:20.257Z,91.02
2023-05-19T23:49:50.394Z,91.27
2023-05-19T23:52:21.985Z,91.40
2023-05-19T23:54:53.569Z,91.21
2023-05-19T23:57:23.653Z,91.28
2023-05-19T23:59:55.200Z,91.28
